sensor_id;sensor_type;location;lat;lon;timestamp;temperature;humidity
41904;DHT22;27586;51.124;4.182;2023-05-20T00:01:01;14.30;99.90
41904;DHT22;27586;51.124;4.182;2023-05-20T00:03:27;14.30;99.90
41904;DHT22;27586;51.124;4.182;2023-05-20T00:05:54;14.30;99.90
41904;DHT22;27586;51.124;4.182;2023-05-20T00:08:19;14.40;99.90
41904;DHT22;27586;51.124;4.182;2023-05-20T00:10:45;14.30;99.90
41904;DHT22;27586;51.124;4.182;2023-05-20T00:13:11;14.30;99.90
41904;DHT22;27586;51.124;4.182;2023-05-20T00:15:37;14.40;99.90
41904;DHT22;27586;51.124;4.182;2023-05-20T00:18:03;14.40;99.90
41904;DHT22;27586;51.124;4.182;2023-05-20T00:20:29;14.30;99.90
41904;DHT22;27586;51.124;4.182;2023-05-20T00:22:55;14.20;99.90
41904;DHT22;27586;51.124;4.182;2023-05-20T00:25:20;14.20;99.90
41904;DHT22;27586;51.124;4.182;2023-05-20T00:27:46;14.20;99.90
41904;DHT22;27586;51.124;4.182;2023-05-20T00:30:12;14.20;99.90
41904;DHT22;27586;51.124;4.182;2023-05-20T00:32:38;14.20;99.90
41904;DHT22;27586;51.124;4.182;2023-05-20T00:35:04;14.20;99.90
41904;DHT22;27586;51.124;4.182;2023-05-20T00:37:30;14.00;99.90
41904;DHT22;27586;51.124;4.182;2023-05-20T00:39:56;14.00;99.90
41904;DHT22;27586;51.124;4.182;2023-05-20T00:42:22;14.00;99.90
41904;DHT22;27586;51.124;4.182;2023-05-20T00:44:48;13.90;99.90
41904;DHT22;27586;51.124;4.182;2023-05-20T00:47:15;13.90;99.90
41904;DHT22;27586;51.124;4.182;2023-05-20T00:49:45;13.90;99.90
41904;DHT22;27586;51.124;4.182;2023-05-20T00:52:13;14.00;99.90
41904;DHT22;27586;51.124;4.182;2023-05-20T00:54:39;13.90;99.90
41904;DHT22;27586;51.124;4.182;2023-05-20T00:57:06;13.90;99.90
41904;DHT22;27586;51.124;4.182;2023-05-20T00:59:36;13.80;99.90
41904;DHT22;27586;51.124;4.182;2023-05-20T01:02:05;13.80;99.90
41904;DHT22;27586;51.124;4.182;2023-05-20T01:04:31;13.80;99.90
41904;DHT22;27586;51.124;4.182;2023-05-20T01:06:58;13.70;99.90
41904;DHT22;27586;51.124;4.182;2023-05-20T01:09:25;13.70;99.90
41904;DHT22;27586;51.124;4.182;2023-05-20T01:12:17;13.70;99.90
41904;DHT22;27586;51.124;4.182;2023-05-20T01:14:49;13.80;99.90
41904;DHT22;27586;51.124;4.182;2023-05-20T01:17:18;13.70;99.90
41904;DHT22;27586;51.124;4.182;2023-05-20T01:19:46;13.60;99.90
41904;DHT22;27586;51.124;4.182;2023-05-20T01:22:13;13.40;99.90
41904;DHT22;27586;51.124;4.182;2023-05-20T01:24:46;13.40;99.90
41904;DHT22;27586;51.124;4.182;2023-05-20T01:27:18;13.40;99.90
41904;DHT22;27586;51.124;4.182;2023-05-20T01:29:45;13.50;99.90
41904;DHT22;27586;51.124;4.182;2023-05-20T01:34:49;13.40;99.90
41904;DHT22;27586;51.124;4.182;2023-05-20T01:37:17;13.40;99.90
41904;DHT22;27586;51.124;4.182;2023-05-20T01:39:45;13.40;99.90
41904;DHT22;27586;51.124;4.182;2023-05-20T01:42:12;13.40;99.90
41904;DHT22;27586;51.124;4.182;2023-05-20T01:44:39;13.40;99.90
41904;DHT22;27586;51.124;4.182;2023-05-20T01:47:06;13.40;99.90
41904;DHT22;27586;51.124;4.182;2023-05-20T01:49:32;13.30;99.90
41904;DHT22;27586;51.124;4.182;2023-05-20T01:51:57;13.20;99.90
41904;DHT22;27586;51.124;4.182;2023-05-20T01:54:23;13.10;99.90
41904;DHT22;27586;51.124;4.182;2023-05-20T01:56:49;13.20;99.90
41904;DHT22;27586;51.124;4.182;2023-05-20T01:59:15;13.10;99.90
41904;DHT22;27586;51.124;4.182;2023-05-20T02:01:40;13.10;99.90
41904;DHT22;27586;51.124;4.182;2023-05-20T02:04:06;13.20;99.90
41904;DHT22;27586;51.124;4.182;2023-05-20T02:06:32;13.10;99.90
41904;DHT22;27586;51.124;4.182;2023-05-20T02:08:57;13.00;99.90
41904;DHT22;27586;51.124;4.182;2023-05-20T02:11:23;13.00;99.90
41904;DHT22;27586;51.124;4.182;2023-05-20T02:13:49;13.10;99.90
41904;DHT22;27586;51.124;4.182;2023-05-20T02:16:16;13.10;99.90
41904;DHT22;27586;51.124;4.182;2023-05-20T02:18:41;13.10;99.90
41904;DHT22;27586;51.124;4.182;2023-05-20T02:21:07;13.20;99.90
41904;DHT22;27586;51.124;4.182;2023-05-20T02:23:33;13.10;99.90
41904;DHT22;27586;51.124;4.182;2023-05-20T02:25:58;13.00;99.90
41904;DHT22;27586;51.124;4.182;2023-05-20T02:28:24;13.10;99.90
41904;DHT22;27586;51.124;4.182;2023-05-20T02:30:50;13.00;99.90
41904;DHT22;27586;51.124;4.182;2023-05-20T02:33:16;13.00;99.90
41904;DHT22;27586;51.124;4.182;2023-05-20T02:35:42;12.90;99.90
41904;DHT22;27586;51.124;4.182;2023-05-20T02:38:07;12.90;99.90
41904;DHT22;27586;51.124;4.182;2023-05-20T02:40:33;12.80;99.90
41904;DHT22;27586;51.124;4.182;2023-05-20T02:42:59;12.90;99.90
41904;DHT22;27586;51.124;4.182;2023-05-20T02:45:28;12.90;99.90
41904;DHT22;27586;51.124;4.182;2023-05-20T02:47:53;12.90;99.90
41904;DHT22;27586;51.124;4.182;2023-05-20T02:50:19;12.80;99.90
41904;DHT22;27586;51.124;4.182;2023-05-20T02:52:45;12.80;99.90
41904;DHT22;27586;51.124;4.182;2023-05-20T02:55:12;12.90;99.90
41904;DHT22;27586;51.124;4.182;2023-05-20T02:57:38;12.70;99.90
41904;DHT22;27586;51.124;4.182;2023-05-20T03:00:06;12.70;99.90
41904;DHT22;27586;51.124;4.182;2023-05-20T03:02:32;12.80;99.90
41904;DHT22;27586;51.124;4.182;2023-05-20T03:04:58;12.80;99.90
41904;DHT22;27586;51.124;4.182;2023-05-20T03:07:24;12.70;99.90
41904;DHT22;27586;51.124;4.182;2023-05-20T03:09:51;12.80;99.90
41904;DHT22;27586;51.124;4.182;2023-05-20T03:12:17;12.70;99.90
41904;DHT22;27586;51.124;4.182;2023-05-20T03:14:43;12.60;99.90
41904;DHT22;27586;51.124;4.182;2023-05-20T03:17:09;12.60;99.90
41904;DHT22;27586;51.124;4.182;2023-05-20T03:19:34;12.60;99.90
41904;DHT22;27586;51.124;4.182;2023-05-20T03:22:00;12.50;99.90
41904;DHT22;27586;51.124;4.182;2023-05-20T03:24:27;12.50;99.90
41904;DHT22;27586;51.124;4.182;2023-05-20T03:26:53;12.60;99.90
41904;DHT22;27586;51.124;4.182;2023-05-20T03:29:18;12.70;99.90
41904;DHT22;27586;51.124;4.182;2023-05-20T03:31:44;12.70;99.90
41904;DHT22;27586;51.124;4.182;2023-05-20T03:34:10;12.60;99.90
41904;DHT22;27586;51.124;4.182;2023-05-20T03:36:36;12.60;99.90
41904;DHT22;27586;51.124;4.182;2023-05-20T03:39:01;12.60;99.90
41904;DHT22;27586;51.124;4.182;2023-05-20T03:41:28;12.50;99.90
41904;DHT22;27586;51.124;4.182;2023-05-20T03:43:54;12.60;99.90
41904;DHT22;27586;51.124;4.182;2023-05-20T03:46:19;12.50;99.90
41904;DHT22;27586;51.124;4.182;2023-05-20T03:48:45;12.50;99.90
41904;DHT22;27586;51.124;4.182;2023-05-20T03:51:11;12.50;99.90
41904;DHT22;27586;51.124;4.182;2023-05-20T03:53:36;12.50;99.90
41904;DHT22;27586;51.124;4.182;2023-05-20T03:56:02;12.40;99.90
41904;DHT22;27586;51.124;4.182;2023-05-20T03:58:28;12.30;99.90
41904;DHT22;27586;51.124;4.182;2023-05-20T04:00:56;12.40;99.90
41904;DHT22;27586;51.124;4.182;2023-05-20T04:03:23;12.30;99.90
41904;DHT22;27586;51.124;4.182;2023-05-20T04:05:49;12.30;99.90
41904;DHT22;27586;51.124;4.182;2023-05-20T04:08:15;12.30;99.90
41904;DHT22;27586;51.124;4.182;2023-05-20T04:10:41;12.30;99.90
41904;DHT22;27586;51.124;4.182;2023-05-20T04:13:09;12.30;99.90
41904;DHT22;27586;51.124;4.182;2023-05-20T04:15:36;12.30;99.90
41904;DHT22;27586;51.124;4.182;2023-05-20T04:18:03;12.20;99.90
41904;DHT22;27586;51.124;4.182;2023-05-20T04:20:30;12.20;99.90
41904;DHT22;27586;51.124;4.182;2023-05-20T04:22:56;12.30;99.90
41904;DHT22;27586;51.124;4.182;2023-05-20T04:25:21;12.30;99.90
41904;DHT22;27586;51.124;4.182;2023-05-20T04:27:48;12.20;99.90
41904;DHT22;27586;51.124;4.182;2023-05-20T04:30:14;12.10;99.90
41904;DHT22;27586;51.124;4.182;2023-05-20T04:32:42;12.10;99.90
41904;DHT22;27586;51.124;4.182;2023-05-20T04:35:08;12.20;99.90
41904;DHT22;27586;51.124;4.182;2023-05-20T04:37:39;12.20;99.90
41904;DHT22;27586;51.124;4.182;2023-05-20T04:40:07;12.20;99.90
41904;DHT22;27586;51.124;4.182;2023-05-20T04:42:33;12.40;99.90
41904;DHT22;27586;51.124;4.182;2023-05-20T04:44:59;12.40;99.90
41904;DHT22;27586;51.124;4.182;2023-05-20T04:47:27;12.40;99.90
41904;DHT22;27586;51.124;4.182;2023-05-20T04:49:54;12.40;99.90
41904;DHT22;27586;51.124;4.182;2023-05-20T04:52:22;12.30;99.90
41904;DHT22;27586;51.124;4.182;2023-05-20T04:54:48;12.30;99.90
41904;DHT22;27586;51.124;4.182;2023-05-20T04:57:15;12.30;99.90
41904;DHT22;27586;51.124;4.182;2023-05-20T04:59:41;12.30;99.90
41904;DHT22;27586;51.124;4.182;2023-05-20T05:02:07;12.40;99.90
41904;DHT22;27586;51.124;4.182;2023-05-20T05:04:33;12.30;99.90
41904;DHT22;27586;51.124;4.182;2023-05-20T05:06:58;12.20;99.90
41904;DHT22;27586;51.124;4.182;2023-05-20T05:09:24;12.20;99.90
41904;DHT22;27586;51.124;4.182;2023-05-20T05:11:50;12.30;99.90
41904;DHT22;27586;51.124;4.182;2023-05-20T05:14:16;12.40;99.90
41904;DHT22;27586;51.124;4.182;2023-05-20T05:16:41;12.50;99.90
41904;DHT22;27586;51.124;4.182;2023-05-20T05:19:07;12.50;99.90
41904;DHT22;27586;51.124;4.182;2023-05-20T05:21:33;12.60;99.90
41904;DHT22;27586;51.124;4.182;2023-05-20T05:23:58;12.60;99.90
41904;DHT22;27586;51.124;4.182;2023-05-20T05:26:24;12.70;99.90
41904;DHT22;27586;51.124;4.182;2023-05-20T05:28:51;12.80;99.90
41904;DHT22;27586;51.124;4.182;2023-05-20T05:31:17;13.00;99.90
41904;DHT22;27586;51.124;4.182;2023-05-20T05:33:43;13.20;99.90
41904;DHT22;27586;51.124;4.182;2023-05-20T05:36:08;13.20;99.90
41904;DHT22;27586;51.124;4.182;2023-05-20T05:38:34;13.20;99.90
41904;DHT22;27586;51.124;4.182;2023-05-20T05:40:59;13.20;99.90
41904;DHT22;27586;51.124;4.182;2023-05-20T05:43:28;13.20;99.90
41904;DHT22;27586;51.124;4.182;2023-05-20T05:45:54;13.30;99.90
41904;DHT22;27586;51.124;4.182;2023-05-20T05:48:21;13.40;99.90
41904;DHT22;27586;51.124;4.182;2023-05-20T05:50:47;13.30;99.90
41904;DHT22;27586;51.124;4.182;2023-05-20T05:53:13;13.30;99.90
41904;DHT22;27586;51.124;4.182;2023-05-20T05:55:38;13.50;99.90
41904;DHT22;27586;51.124;4.182;2023-05-20T05:58:04;13.60;99.90
41904;DHT22;27586;51.124;4.182;2023-05-20T06:00:30;13.70;99.90
41904;DHT22;27586;51.124;4.182;2023-05-20T06:02:55;13.90;99.90
41904;DHT22;27586;51.124;4.182;2023-05-20T06:05:21;13.90;99.90
41904;DHT22;27586;51.124;4.182;2023-05-20T06:07:46;13.90;99.90
41904;DHT22;27586;51.124;4.182;2023-05-20T06:10:12;13.90;99.90
41904;DHT22;27586;51.124;4.182;2023-05-20T06:12:38;14.10;99.90
41904;DHT22;27586;51.124;4.182;2023-05-20T06:15:04;14.20;99.90
41904;DHT22;27586;51.124;4.182;2023-05-20T06:17:31;14.30;99.90
41904;DHT22;27586;51.124;4.182;2023-05-20T06:19:56;14.30;99.90
41904;DHT22;27586;51.124;4.182;2023-05-20T06:22:22;14.30;99.90
41904;DHT22;27586;51.124;4.182;2023-05-20T06:24:48;14.40;99.90
41904;DHT22;27586;51.124;4.182;2023-05-20T06:27:13;14.40;99.90
41904;DHT22;27586;51.124;4.182;2023-05-20T06:29:39;14.40;99.90
41904;DHT22;27586;51.124;4.182;2023-05-20T06:32:05;14.50;99.90
41904;DHT22;27586;51.124;4.182;2023-05-20T06:34:31;14.60;99.90
41904;DHT22;27586;51.124;4.182;2023-05-20T06:36:57;14.50;99.90
41904;DHT22;27586;51.124;4.182;2023-05-20T06:39:24;14.50;99.90
41904;DHT22;27586;51.124;4.182;2023-05-20T06:41:49;14.70;99.90
41904;DHT22;27586;51.124;4.182;2023-05-20T06:44:17;14.90;99.90
41904;DHT22;27586;51.124;4.182;2023-05-20T06:46:43;15.10;99.90
41904;DHT22;27586;51.124;4.182;2023-05-20T06:49:09;15.10;99.90
41904;DHT22;27586;51.124;4.182;2023-05-20T06:51:34;15.00;99.90
41904;DHT22;27586;51.124;4.182;2023-05-20T06:54:00;15.10;99.90
41904;DHT22;27586;51.124;4.182;2023-05-20T06:56:26;15.30;99.90
41904;DHT22;27586;51.124;4.182;2023-05-20T06:58:51;15.40;99.90
41904;DHT22;27586;51.124;4.182;2023-05-20T07:01:17;15.40;99.90
41904;DHT22;27586;51.124;4.182;2023-05-20T07:03:43;15.50;99.90
41904;DHT22;27586;51.124;4.182;2023-05-20T07:06:09;15.70;99.90
41904;DHT22;27586;51.124;4.182;2023-05-20T07:08:35;15.80;99.90
41904;DHT22;27586;51.124;4.182;2023-05-20T07:11:01;16.00;99.90
41904;DHT22;27586;51.124;4.182;2023-05-20T07:13:26;16.10;99.90
41904;DHT22;27586;51.124;4.182;2023-05-20T07:15:52;16.20;99.90
41904;DHT22;27586;51.124;4.182;2023-05-20T07:18:17;16.40;99.90
41904;DHT22;27586;51.124;4.182;2023-05-20T07:20:44;16.60;99.90
41904;DHT22;27586;51.124;4.182;2023-05-20T07:23:09;16.80;99.90
41904;DHT22;27586;51.124;4.182;2023-05-20T07:25:35;16.80;99.90
41904;DHT22;27586;51.124;4.182;2023-05-20T07:28:01;16.70;99.90
41904;DHT22;27586;51.124;4.182;2023-05-20T07:30:26;17.00;99.90
41904;DHT22;27586;51.124;4.182;2023-05-20T07:32:52;16.90;99.90
41904;DHT22;27586;51.124;4.182;2023-05-20T07:35:18;16.90;99.90
41904;DHT22;27586;51.124;4.182;2023-05-20T07:37:44;17.00;99.90
41904;DHT22;27586;51.124;4.182;2023-05-20T07:40:10;17.00;99.90
41904;DHT22;27586;51.124;4.182;2023-05-20T07:42:36;17.20;99.90
41904;DHT22;27586;51.124;4.182;2023-05-20T07:45:01;17.20;99.90
41904;DHT22;27586;51.124;4.182;2023-05-20T07:47:27;17.30;99.90
41904;DHT22;27586;51.124;4.182;2023-05-20T07:49:53;17.10;99.90
41904;DHT22;27586;51.124;4.182;2023-05-20T07:52:18;17.30;99.90
41904;DHT22;27586;51.124;4.182;2023-05-20T07:54:44;17.40;99.90
41904;DHT22;27586;51.124;4.182;2023-05-20T07:57:13;17.50;99.90
41904;DHT22;27586;51.124;4.182;2023-05-20T07:59:39;17.60;99.90
41904;DHT22;27586;51.124;4.182;2023-05-20T08:02:05;17.70;99.90
41904;DHT22;27586;51.124;4.182;2023-05-20T08:04:31;17.70;99.90
41904;DHT22;27586;51.124;4.182;2023-05-20T08:06:57;17.90;99.90
41904;DHT22;27586;51.124;4.182;2023-05-20T08:09:23;17.90;99.90
41904;DHT22;27586;51.124;4.182;2023-05-20T08:11:48;17.80;99.90
41904;DHT22;27586;51.124;4.182;2023-05-20T08:14:14;17.80;99.90
41904;DHT22;27586;51.124;4.182;2023-05-20T08:16:41;17.80;99.90
41904;DHT22;27586;51.124;4.182;2023-05-20T08:19:06;18.10;99.90
41904;DHT22;27586;51.124;4.182;2023-05-20T08:21:32;18.20;99.90
41904;DHT22;27586;51.124;4.182;2023-05-20T08:23:58;18.20;99.90
41904;DHT22;27586;51.124;4.182;2023-05-20T08:26:23;18.10;99.90
41904;DHT22;27586;51.124;4.182;2023-05-20T08:28:49;18.30;99.90
41904;DHT22;27586;51.124;4.182;2023-05-20T08:31:14;18.20;99.90
41904;DHT22;27586;51.124;4.182;2023-05-20T08:33:42;18.30;99.90
41904;DHT22;27586;51.124;4.182;2023-05-20T08:36:07;18.50;99.90
41904;DHT22;27586;51.124;4.182;2023-05-20T08:38:33;18.50;99.90
41904;DHT22;27586;51.124;4.182;2023-05-20T08:40:59;18.60;99.90
41904;DHT22;27586;51.124;4.182;2023-05-20T08:43:25;18.50;99.90
41904;DHT22;27586;51.124;4.182;2023-05-20T08:45:51;18.70;99.90
41904;DHT22;27586;51.124;4.182;2023-05-20T08:48:17;18.80;99.90
41904;DHT22;27586;51.124;4.182;2023-05-20T08:50:45;19.00;99.90
41904;DHT22;27586;51.124;4.182;2023-05-20T08:53:14;19.10;99.90
41904;DHT22;27586;51.124;4.182;2023-05-20T08:55:46;19.10;99.10
41904;DHT22;27586;51.124;4.182;2023-05-20T08:58:14;19.10;99.30
41904;DHT22;27586;51.124;4.182;2023-05-20T09:00:40;18.90;98.70
41904;DHT22;27586;51.124;4.182;2023-05-20T09:03:06;19.00;99.90
41904;DHT22;27586;51.124;4.182;2023-05-20T09:05:33;19.10;99.90
41904;DHT22;27586;51.124;4.182;2023-05-20T09:08:10;19.10;99.50
41904;DHT22;27586;51.124;4.182;2023-05-20T09:10:40;19.20;98.60
41904;DHT22;27586;51.124;4.182;2023-05-20T09:13:07;19.30;98.90
41904;DHT22;27586;51.124;4.182;2023-05-20T09:15:34;19.60;99.60
41904;DHT22;27586;51.124;4.182;2023-05-20T09:18:04;19.80;98.80
41904;DHT22;27586;51.124;4.182;2023-05-20T09:20:34;19.90;96.50
41904;DHT22;27586;51.124;4.182;2023-05-20T09:23:03;19.70;97.40
41904;DHT22;27586;51.124;4.182;2023-05-20T09:25:29;19.50;97.50
41904;DHT22;27586;51.124;4.182;2023-05-20T09:27:55;19.70;98.10
41904;DHT22;27586;51.124;4.182;2023-05-20T09:30:21;19.70;96.80
41904;DHT22;27586;51.124;4.182;2023-05-20T09:32:57;19.70;97.80
41904;DHT22;27586;51.124;4.182;2023-05-20T09:35:25;19.70;96.90
41904;DHT22;27586;51.124;4.182;2023-05-20T09:37:57;19.90;96.00
41904;DHT22;27586;51.124;4.182;2023-05-20T09:40:29;19.50;94.70
41904;DHT22;27586;51.124;4.182;2023-05-20T09:43:07;19.50;95.80
41904;DHT22;27586;51.124;4.182;2023-05-20T09:45:37;19.80;96.30
41904;DHT22;27586;51.124;4.182;2023-05-20T09:48:03;19.80;95.90
41904;DHT22;27586;51.124;4.182;2023-05-20T09:50:30;19.70;95.70
41904;DHT22;27586;51.124;4.182;2023-05-20T09:53:01;19.70;96.60
41904;DHT22;27586;51.124;4.182;2023-05-20T09:55:27;19.80;95.30
41904;DHT22;27586;51.124;4.182;2023-05-20T09:57:54;19.70;95.50
41904;DHT22;27586;51.124;4.182;2023-05-20T10:00:20;19.70;95.40
41904;DHT22;27586;51.124;4.182;2023-05-20T10:02:50;19.60;96.10
41904;DHT22;27586;51.124;4.182;2023-05-20T10:05:25;19.70;94.60
41904;DHT22;27586;51.124;4.182;2023-05-20T10:13:19;20.30;95.40
41904;DHT22;27586;51.124;4.182;2023-05-20T10:21:17;20.00;94.80
41904;DHT22;27586;51.124;4.182;2023-05-20T10:23:51;20.20;95.10
41904;DHT22;27586;51.124;4.182;2023-05-20T10:26:17;20.20;95.20
41904;DHT22;27586;51.124;4.182;2023-05-20T10:28:45;20.30;95.20
41904;DHT22;27586;51.124;4.182;2023-05-20T10:31:20;20.60;95.10
41904;DHT22;27586;51.124;4.182;2023-05-20T10:33:46;20.60;94.40
41904;DHT22;27586;51.124;4.182;2023-05-20T10:36:25;20.70;94.70
41904;DHT22;27586;51.124;4.182;2023-05-20T10:38:56;20.90;94.40
41904;DHT22;27586;51.124;4.182;2023-05-20T10:41:27;21.00;92.60
41904;DHT22;27586;51.124;4.182;2023-05-20T10:44:04;20.80;92.70
41904;DHT22;27586;51.124;4.182;2023-05-20T10:46:30;20.50;92.60
41904;DHT22;27586;51.124;4.182;2023-05-20T10:48:57;20.80;92.70
41904;DHT22;27586;51.124;4.182;2023-05-20T10:51:23;20.70;92.90
41904;DHT22;27586;51.124;4.182;2023-05-20T10:53:52;20.90;94.40
41904;DHT22;27586;51.124;4.182;2023-05-20T10:56:20;20.80;92.70
41904;DHT22;27586;51.124;4.182;2023-05-20T10:58:47;20.70;93.40
41904;DHT22;27586;51.124;4.182;2023-05-20T11:01:13;20.90;94.60
41904;DHT22;27586;51.124;4.182;2023-05-20T11:03:45;20.90;92.90
41904;DHT22;27586;51.124;4.182;2023-05-20T11:06:17;21.00;94.50
41904;DHT22;27586;51.124;4.182;2023-05-20T11:08:43;21.10;93.50
41904;DHT22;27586;51.124;4.182;2023-05-20T11:11:10;21.20;92.70
41904;DHT22;27586;51.124;4.182;2023-05-20T11:13:37;21.10;92.80
41904;DHT22;27586;51.124;4.182;2023-05-20T11:16:03;21.00;92.50
41904;DHT22;27586;51.124;4.182;2023-05-20T11:18:29;20.80;93.80
41904;DHT22;27586;51.124;4.182;2023-05-20T11:20:57;20.90;93.40
41904;DHT22;27586;51.124;4.182;2023-05-20T11:23:25;21.10;92.30
41904;DHT22;27586;51.124;4.182;2023-05-20T11:25:51;21.20;92.00
41904;DHT22;27586;51.124;4.182;2023-05-20T11:28:18;21.10;92.80
41904;DHT22;27586;51.124;4.182;2023-05-20T11:30:46;21.20;92.30
41904;DHT22;27586;51.124;4.182;2023-05-20T11:33:13;21.10;92.00
41904;DHT22;27586;51.124;4.182;2023-05-20T11:35:50;21.20;93.00
41904;DHT22;27586;51.124;4.182;2023-05-20T11:38:18;21.40;92.10
41904;DHT22;27586;51.124;4.182;2023-05-20T11:40:45;21.30;92.30
41904;DHT22;27586;51.124;4.182;2023-05-20T11:43:12;21.00;92.00
41904;DHT22;27586;51.124;4.182;2023-05-20T11:45:42;20.90;91.90
41904;DHT22;27586;51.124;4.182;2023-05-20T11:48:09;21.00;93.20
41904;DHT22;27586;51.124;4.182;2023-05-20T11:50:42;21.00;94.00
41904;DHT22;27586;51.124;4.182;2023-05-20T11:53:10;20.90;93.50
41904;DHT22;27586;51.124;4.182;2023-05-20T11:58:15;21.00;92.90
41904;DHT22;27586;51.124;4.182;2023-05-20T12:00:41;21.20;93.20
41904;DHT22;27586;51.124;4.182;2023-05-20T12:03:09;21.40;93.10
41904;DHT22;27586;51.124;4.182;2023-05-20T12:05:36;21.40;93.50
41904;DHT22;27586;51.124;4.182;2023-05-20T12:08:01;21.40;93.20
41904;DHT22;27586;51.124;4.182;2023-05-20T12:10:28;21.50;92.40
41904;DHT22;27586;51.124;4.182;2023-05-20T12:12:54;21.60;92.30
41904;DHT22;27586;51.124;4.182;2023-05-20T12:15:20;21.60;93.10
41904;DHT22;27586;51.124;4.182;2023-05-20T12:17:47;21.50;92.60
41904;DHT22;27586;51.124;4.182;2023-05-20T12:20:15;21.50;92.70
41904;DHT22;27586;51.124;4.182;2023-05-20T12:22:43;21.70;93.80
41904;DHT22;27586;51.124;4.182;2023-05-20T12:25:10;22.00;93.30
41904;DHT22;27586;51.124;4.182;2023-05-20T12:27:36;22.00;91.80
41904;DHT22;27586;51.124;4.182;2023-05-20T12:30:02;22.00;91.70
41904;DHT22;27586;51.124;4.182;2023-05-20T12:32:28;21.70;92.30
41904;DHT22;27586;51.124;4.182;2023-05-20T12:34:54;21.60;92.50
41904;DHT22;27586;51.124;4.182;2023-05-20T12:37:20;21.40;93.10
41904;DHT22;27586;51.124;4.182;2023-05-20T12:39:45;21.50;92.50
41904;DHT22;27586;51.124;4.182;2023-05-20T12:42:11;21.60;91.90
41904;DHT22;27586;51.124;4.182;2023-05-20T12:44:37;21.50;92.10
41904;DHT22;27586;51.124;4.182;2023-05-20T12:47:02;21.60;92.10
41904;DHT22;27586;51.124;4.182;2023-05-20T12:49:28;21.60;93.50
41904;DHT22;27586;51.124;4.182;2023-05-20T12:51:54;21.30;92.70
41904;DHT22;27586;51.124;4.182;2023-05-20T12:54:19;21.00;92.80
41904;DHT22;27586;51.124;4.182;2023-05-20T12:56:45;21.00;93.90
41904;DHT22;27586;51.124;4.182;2023-05-20T12:59:14;21.20;93.40
41904;DHT22;27586;51.124;4.182;2023-05-20T13:01:39;21.10;93.10
41904;DHT22;27586;51.124;4.182;2023-05-20T13:04:05;21.20;93.20
41904;DHT22;27586;51.124;4.182;2023-05-20T13:06:32;21.30;93.00
41904;DHT22;27586;51.124;4.182;2023-05-20T13:08:58;21.30;93.90
41904;DHT22;27586;51.124;4.182;2023-05-20T13:11:23;21.30;94.20
41904;DHT22;27586;51.124;4.182;2023-05-20T13:13:49;21.00;93.70
41904;DHT22;27586;51.124;4.182;2023-05-20T13:16:15;21.00;93.80
41904;DHT22;27586;51.124;4.182;2023-05-20T13:18:42;21.20;94.20
41904;DHT22;27586;51.124;4.182;2023-05-20T13:21:08;21.40;93.90
41904;DHT22;27586;51.124;4.182;2023-05-20T13:23:34;21.50;93.60
41904;DHT22;27586;51.124;4.182;2023-05-20T13:26:01;21.50;93.80
41904;DHT22;27586;51.124;4.182;2023-05-20T13:28:27;21.50;93.50
41904;DHT22;27586;51.124;4.182;2023-05-20T13:30:53;21.50;93.50
41904;DHT22;27586;51.124;4.182;2023-05-20T13:33:19;21.40;93.70
41904;DHT22;27586;51.124;4.182;2023-05-20T13:35:44;21.40;94.80
41904;DHT22;27586;51.124;4.182;2023-05-20T13:38:10;21.60;93.70
41904;DHT22;27586;51.124;4.182;2023-05-20T13:40:36;21.80;94.00
41904;DHT22;27586;51.124;4.182;2023-05-20T13:43:01;21.80;93.40
41904;DHT22;27586;51.124;4.182;2023-05-20T13:45:27;21.40;92.80
41904;DHT22;27586;51.124;4.182;2023-05-20T13:47:53;21.30;94.40
41904;DHT22;27586;51.124;4.182;2023-05-20T13:50:19;21.50;94.30
41904;DHT22;27586;51.124;4.182;2023-05-20T13:52:45;21.50;92.80
41904;DHT22;27586;51.124;4.182;2023-05-20T13:55:11;21.10;92.70
41904;DHT22;27586;51.124;4.182;2023-05-20T13:57:36;21.00;94.30
41904;DHT22;27586;51.124;4.182;2023-05-20T14:00:02;20.90;93.80
41904;DHT22;27586;51.124;4.182;2023-05-20T14:02:29;20.50;94.20
41904;DHT22;27586;51.124;4.182;2023-05-20T14:04:55;20.40;93.90
41904;DHT22;27586;51.124;4.182;2023-05-20T14:07:20;20.50;94.10
41904;DHT22;27586;51.124;4.182;2023-05-20T14:09:46;20.50;94.60
41904;DHT22;27586;51.124;4.182;2023-05-20T14:12:12;20.60;95.20
41904;DHT22;27586;51.124;4.182;2023-05-20T14:14:37;20.70;94.80
41904;DHT22;27586;51.124;4.182;2023-05-20T14:17:03;20.70;94.20
41904;DHT22;27586;51.124;4.182;2023-05-20T14:19:29;20.50;94.90
41904;DHT22;27586;51.124;4.182;2023-05-20T14:21:54;20.50;94.90
41904;DHT22;27586;51.124;4.182;2023-05-20T14:24:20;20.50;94.10
41904;DHT22;27586;51.124;4.182;2023-05-20T14:26:46;20.50;94.70
41904;DHT22;27586;51.124;4.182;2023-05-20T14:29:11;20.50;95.20
41904;DHT22;27586;51.124;4.182;2023-05-20T14:31:37;20.50;94.90
41904;DHT22;27586;51.124;4.182;2023-05-20T14:34:03;20.60;94.30
41904;DHT22;27586;51.124;4.182;2023-05-20T14:36:29;20.80;94.00
41904;DHT22;27586;51.124;4.182;2023-05-20T14:38:55;21.00;94.60
41904;DHT22;27586;51.124;4.182;2023-05-20T14:41:20;21.00;94.90
41904;DHT22;27586;51.124;4.182;2023-05-20T14:43:46;21.20;95.20
41904;DHT22;27586;51.124;4.182;2023-05-20T14:46:12;21.30;95.10
41904;DHT22;27586;51.124;4.182;2023-05-20T14:48:38;21.20;94.70
41904;DHT22;27586;51.124;4.182;2023-05-20T14:51:04;21.30;95.30
41904;DHT22;27586;51.124;4.182;2023-05-20T14:53:29;21.10;94.50
41904;DHT22;27586;51.124;4.182;2023-05-20T14:55:55;20.90;94.50
41904;DHT22;27586;51.124;4.182;2023-05-20T14:58:20;20.70;95.00
41904;DHT22;27586;51.124;4.182;2023-05-20T15:00:46;20.70;95.10
41904;DHT22;27586;51.124;4.182;2023-05-20T15:03:12;20.60;95.70
41904;DHT22;27586;51.124;4.182;2023-05-20T15:05:37;20.60;95.00
41904;DHT22;27586;51.124;4.182;2023-05-20T15:08:03;20.50;95.70
41904;DHT22;27586;51.124;4.182;2023-05-20T15:10:29;20.60;95.60
41904;DHT22;27586;51.124;4.182;2023-05-20T15:12:55;20.60;95.70
41904;DHT22;27586;51.124;4.182;2023-05-20T15:15:20;20.70;95.10
41904;DHT22;27586;51.124;4.182;2023-05-20T15:17:46;20.70;95.00
41904;DHT22;27586;51.124;4.182;2023-05-20T15:20:12;20.70;95.30
41904;DHT22;27586;51.124;4.182;2023-05-20T15:22:37;20.80;95.80
41904;DHT22;27586;51.124;4.182;2023-05-20T15:25:03;20.90;95.20
41904;DHT22;27586;51.124;4.182;2023-05-20T15:27:29;20.90;95.10
41904;DHT22;27586;51.124;4.182;2023-05-20T15:29:55;20.90;95.40
41904;DHT22;27586;51.124;4.182;2023-05-20T15:32:20;20.90;95.80
41904;DHT22;27586;51.124;4.182;2023-05-20T15:34:46;21.00;95.50
41904;DHT22;27586;51.124;4.182;2023-05-20T15:37:12;21.00;95.30
41904;DHT22;27586;51.124;4.182;2023-05-20T15:39:37;21.00;94.80
41904;DHT22;27586;51.124;4.182;2023-05-20T15:42:03;20.90;95.00